Time;durP1;ratioP1;P1;durP2;ratioP2;P2;SDS_P1;SDS_P2;PMS_P1;PMS_P2;Temp;Humidity;BMP_temperature;BMP_pressure;BME280_temperature;BME280_humidity;BME280_pressure;Samples;Min_cycle;Max_cycle;Signal;HPM_P1;HPM_P2
2024/01/23 00:01:43;;;;;;;2.67;0.88;;;;;;;6.46;100.00;99446.97;5030256;28;20029;-63
2024/01/23 00:04:08;;;;;;;7.25;0.63;;;;;;;6.62;100.00;99432.75;5027526;28;20036;-63
2024/01/23 00:06:34;;;;;;;5.72;0.95;;;;;;;6.64;100.00;99436.13;5030933;28;20112;-63
2024/01/23 00:09:00;;;;;;;10.15;0.73;;;;;;;6.75;100.00;99438.50;5028943;28;20392;-63
2024/01/23 00:11:25;;;;;;;3.55;0.88;;;;;;;6.74;100.00;99444.91;5028942;28;20120;-63
2024/01/23 00:14:04;;;;;;;3.92;0.77;;;;;;;6.68;100.00;99444.69;5028571;28;20026;-62
2024/01/23 00:16:29;;;;;;;5.13;0.73;;;;;;;6.65;100.00;99443.16;5026425;28;20592;-63
2024/01/23 00:19:01;;;;;;;8.93;0.90;;;;;;;6.63;100.00;99444.34;5156650;22;20140;-53
2024/01/23 00:21:49;;;;;;;4.88;0.65;;;;;;;6.75;100.00;99432.28;5155402;23;20107;-62
2024/01/23 00:24:17;;;;;;;8.75;1.38;;;;;;;6.82;100.00;99438.69;5176146;22;20103;-53
2024/01/23 00:26:49;;;;;;;5.13;0.77;;;;;;;6.86;100.00;99423.91;5191262;22;20044;-62
2024/01/23 00:31:50;;;;;;;8.95;0.80;;;;;;;6.85;100.00;99426.78;3351765;26;20057;-53
2024/01/23 00:34:15;;;;;;;8.32;1.02;;;;;;;6.87;100.00;99427.47;5033446;28;20439;-53
2024/01/23 00:36:43;;;;;;;7.47;1.20;;;;;;;6.81;100.00;99431.63;5033503;28;20063;-53
2024/01/23 00:39:08;;;;;;;6.20;0.80;;;;;;;6.87;100.00;99428.28;5032222;28;20079;-53
2024/01/23 00:41:34;;;;;;;6.00;1.00;;;;;;;6.93;100.00;99414.19;5030166;28;20112;-53
2024/01/23 00:44:00;;;;;;;5.45;0.93;;;;;;;6.83;100.00;99418.84;5032252;28;20025;-52
2024/01/23 00:46:25;;;;;;;5.47;0.60;;;;;;;6.90;100.00;99440.56;5031159;28;20533;-53
2024/01/23 00:48:53;;;;;;;3.55;0.80;;;;;;;6.88;100.00;99438.03;5013894;28;20028;-52
2024/01/23 00:51:18;;;;;;;4.63;0.63;;;;;;;6.99;100.00;99436.88;5025707;28;20111;-53
2024/01/23 00:53:43;;;;;;;4.07;0.73;;;;;;;6.97;100.00;99429.00;5024214;28;20076;-53
2024/01/23 00:56:12;;;;;;;7.68;1.20;;;;;;;6.99;100.00;99423.44;5036068;28;20033;-52
2024/01/23 00:58:37;;;;;;;5.90;0.60;;;;;;;7.03;100.00;99419.41;5024909;28;20469;-53
2024/01/23 01:01:02;;;;;;;9.25;0.93;;;;;;;7.06;100.00;99429.00;5027848;28;20033;-52
2024/01/23 01:03:29;;;;;;;7.53;1.00;;;;;;;7.13;100.00;99424.66;5026363;28;20029;-52
2024/01/23 01:05:57;;;;;;;4.85;0.95;;;;;;;7.10;100.00;99420.44;5026054;28;20085;-53
2024/01/23 01:08:23;;;;;;;12.03;1.50;;;;;;;7.24;100.00;99416.25;5025852;28;20523;-53
2024/01/23 01:10:51;;;;;;;6.85;0.70;;;;;;;7.24;100.00;99417.09;5027035;28;20033;-52
2024/01/23 01:13:16;;;;;;;10.57;0.73;;;;;;;7.32;100.00;99410.03;5035322;28;20065;-53
2024/01/23 01:15:42;;;;;;;6.20;0.63;;;;;;;7.34;100.00;99411.56;5030577;28;20053;-53
2024/01/23 01:18:07;;;;;;;6.45;0.68;;;;;;;7.27;100.00;99420.47;5032294;28;20021;-53
2024/01/23 01:20:36;;;;;;;7.18;1.00;;;;;;;7.18;100.00;99415.06;5035698;28;20454;-53
2024/01/23 01:23:01;;;;;;;6.97;0.90;;;;;;;7.29;100.00;99408.53;5031466;28;20385;-53
2024/01/23 01:25:27;;;;;;;11.27;1.20;;;;;;;7.25;100.00;99444.84;5039333;28;20025;-53
2024/01/23 01:27:52;;;;;;;5.40;1.45;;;;;;;7.25;100.00;99432.22;5028169;28;20017;-52
2024/01/23 01:30:17;;;;;;;7.97;0.88;;;;;;;7.19;100.00;99454.41;5027013;28;20082;-53
2024/01/23 01:32:45;;;;;;;7.75;0.73;;;;;;;7.20;100.00;99452.56;5035592;28;20059;-53
2024/01/23 01:35:11;;;;;;;5.32;1.00;;;;;;;7.21;100.00;99448.88;5029602;28;20057;-53
2024/01/23 01:37:36;;;;;;;8.02;1.33;;;;;;;7.28;100.00;99454.44;5021903;28;20052;-53
2024/01/23 01:40:02;;;;;;;6.97;1.30;;;;;;;7.30;100.00;99474.78;5037235;28;20051;-53
2024/01/23 01:42:28;;;;;;;7.47;0.85;;;;;;;7.34;100.00;99469.94;5028109;28;20509;-54
2024/01/23 01:44:53;;;;;;;4.10;0.80;;;;;;;7.24;100.00;99479.00;5039447;28;20049;-54
2024/01/23 01:47:19;;;;;;;5.75;1.05;;;;;;;7.23;100.00;99482.69;5025745;28;20040;-53
2024/01/23 01:49:45;;;;;;;7.65;0.82;;;;;;;7.15;100.00;99481.81;5031061;28;20397;-54
2024/01/23 01:52:11;;;;;;;7.45;0.50;;;;;;;6.92;100.00;99481.59;5038152;28;20013;-53
2024/01/23 01:54:43;;;;;;;4.95;0.52;;;;;;;6.72;100.00;99471.09;5029023;28;20040;-53
2024/01/23 01:57:09;;;;;;;1.67;0.30;;;;;;;6.52;100.00;99475.03;5026471;28;20036;-54
2024/01/23 01:59:35;;;;;;;3.67;1.15;;;;;;;5.99;100.00;99503.78;5030586;28;20392;-54
2024/01/23 02:02:00;;;;;;;2.13;0.30;;;;;;;5.57;100.00;99511.63;5032772;28;20022;-54
2024/01/23 02:04:26;;;;;;;4.70;0.40;;;;;;;5.35;100.00;99497.69;5030209;28;20428;-56
2024/01/23 02:06:52;;;;;;;9.68;0.65;;;;;;;5.15;100.00;99513.06;5032107;28;20385;-62
2024/01/23 02:09:17;;;;;;;1.38;0.35;;;;;;;5.11;100.00;99511.69;5031450;28;20079;-61
2024/01/23 02:12:00;;;;;;;3.58;0.47;;;;;;;5.08;100.00;99527.22;5033731;28;20473;-62
2024/01/23 02:14:31;;;;;;;6.53;0.73;;;;;;;4.97;100.00;99515.69;5029545;28;20025;-61
2024/01/23 02:16:57;;;;;;;8.45;1.13;;;;;;;4.86;100.00;99513.22;5030263;28;20036;-61
2024/01/23 02:19:24;;;;;;;4.97;0.60;;;;;;;4.85;100.00;99519.59;5037011;28;20025;-61
2024/01/23 02:21:50;;;;;;;11.38;0.98;;;;;;;4.82;100.00;99506.47;5030794;28;20029;-62
2024/01/23 02:24:15;;;;;;;5.30;0.55;;;;;;;4.97;100.00;99510.34;5033170;28;20033;-62
2024/01/23 02:26:41;;;;;;;8.88;0.88;;;;;;;5.00;100.00;99520.78;5032990;28;20108;-62
2024/01/23 02:29:06;;;;;;;2.22;0.55;;;;;;;5.08;100.00;99524.53;5030086;28;20423;-62
2024/01/23 02:31:31;;;;;;;7.70;0.95;;;;;;;5.14;100.00;99521.28;5034011;28;20060;-62
2024/01/23 02:33:57;;;;;;;5.05;0.70;;;;;;;5.17;100.00;99527.16;5036243;28;20310;-62
2024/01/23 02:36:22;;;;;;;11.85;1.70;;;;;;;5.14;100.00;99518.59;5029581;28;20029;-62
2024/01/23 02:38:49;;;;;;;6.53;1.10;;;;;;;5.21;100.00;99535.75;5031114;28;20025;-63
2024/01/23 02:41:14;;;;;;;8.52;0.80;;;;;;;5.21;100.00;99533.94;5032383;28;20060;-62
2024/01/23 02:43:39;;;;;;;5.60;1.02;;;;;;;5.23;100.00;99533.75;5027362;28;20054;-62
2024/01/23 02:46:08;;;;;;;5.30;0.60;;;;;;;5.17;100.00;99534.38;5030499;28;20029;-62
2024/01/23 02:48:33;;;;;;;3.53;0.60;;;;;;;5.11;100.00;99535.81;5013224;28;20393;-61
2024/01/23 02:50:59;;;;;;;7.13;1.20;;;;;;;4.99;100.00;99516.41;5034196;28;20032;-61
2024/01/23 02:53:24;;;;;;;7.57;1.77;;;;;;;4.99;100.00;99537.84;5022482;28;20515;-62
2024/01/23 02:55:49;;;;;;;7.43;1.08;;;;;;;5.03;100.00;99541.06;5034105;28;20091;-62
2024/01/23 02:58:15;;;;;;;12.80;0.93;;;;;;;5.10;100.00;99552.91;5030481;28;20040;-62
2024/01/23 03:00:42;;;;;;;13.38;1.80;;;;;;;5.11;100.00;99549.25;5034854;28;20021;-62
2024/01/23 03:03:08;;;;;;;11.38;1.40;;;;;;;5.15;100.00;99544.41;5037357;28;20033;-62
2024/01/23 03:05:34;;;;;;;11.60;1.30;;;;;;;5.33;100.00;99541.75;5028013;28;20071;-62
2024/01/23 03:08:00;;;;;;;11.57;1.23;;;;;;;5.37;100.00;99532.38;5032456;28;20030;-62
2024/01/23 03:10:25;;;;;;;14.05;1.30;;;;;;;5.43;100.00;99537.16;5035837;28;20030;-62
2024/01/23 03:12:52;;;;;;;14.88;1.50;;;;;;;5.57;100.00;99539.31;5029311;28;20390;-62
2024/01/23 03:15:18;;;;;;;8.02;1.20;;;;;;;5.64;100.00;99544.91;5028445;28;20494;-62
2024/01/23 03:17:44;;;;;;;12.32;1.17;;;;;;;5.87;100.00;99545.31;5023954;28;20079;-61
2024/01/23 03:20:10;;;;;;;12.27;2.13;;;;;;;5.75;100.00;99544.69;5032443;28;20424;-62
2024/01/23 03:22:36;;;;;;;18.27;2.28;;;;;;;5.84;100.00;99540.22;5015264;28;20076;-61
2024/01/23 03:25:02;;;;;;;13.35;1.20;;;;;;;5.82;100.00;99526.13;5039629;28;20481;-62
2024/01/23 03:27:27;;;;;;;8.88;1.23;;;;;;;5.88;100.00;99537.06;5022100;28;20034;-62
2024/01/23 03:29:54;;;;;;;10.95;1.90;;;;;;;5.74;100.00;99526.91;5029216;28;20029;-62
2024/01/23 03:32:19;;;;;;;16.33;2.05;;;;;;;5.85;100.00;99534.69;4984144;28;1266424;-62
2024/01/23 03:34:45;;;;;;;7.93;1.67;;;;;;;5.84;100.00;99551.81;5032382;28;20053;-62
2024/01/23 03:37:10;;;;;;;21.30;2.15;;;;;;;5.80;100.00;99550.44;5028226;28;20453;-61
2024/01/23 03:39:36;;;;;;;18.27;2.35;;;;;;;5.79;100.00;99548.75;5027816;28;20052;-62
2024/01/23 03:42:02;;;;;;;9.63;1.45;;;;;;;5.87;100.00;99545.31;5033985;28;20523;-62
2024/01/23 03:44:28;;;;;;;12.82;1.20;;;;;;;5.88;100.00;99546.97;5032324;28;20034;-61
2024/01/23 03:46:56;;;;;;;13.10;1.67;;;;;;;5.99;100.00;99548.59;5031226;28;20095;-61
2024/01/23 03:49:22;;;;;;;9.15;0.98;;;;;;;6.13;100.00;99539.97;5025237;28;20045;-61
2024/01/23 03:51:48;;;;;;;6.38;1.23;;;;;;;6.20;100.00;99551.78;5032861;28;20025;-62
2024/01/23 03:54:14;;;;;;;13.88;1.60;;;;;;;6.20;100.00;99549.09;5028671;28;20025;-62
2024/01/23 03:56:41;;;;;;;9.57;1.30;;;;;;;6.34;100.00;99548.53;5028990;28;20452;-62
2024/01/23 03:59:06;;;;;;;17.73;2.08;;;;;;;6.31;100.00;99556.94;5030636;28;20060;-62
2024/01/23 04:01:32;;;;;;;14.85;1.50;;;;;;;6.39;100.00;99552.59;5027703;28;20025;-62
2024/01/23 04:03:57;;;;;;;13.50;1.17;;;;;;;6.33;100.00;99560.28;5027938;28;20032;-61
2024/01/23 04:06:23;;;;;;;14.38;1.13;;;;;;;6.27;100.00;99554.69;5023987;28;20391;-62
2024/01/23 04:08:51;;;;;;;16.30;1.98;;;;;;;6.18;100.00;99548.41;5027843;28;20022;-62
2024/01/23 04:11:17;;;;;;;11.70;1.37;;;;;;;6.15;100.00;99537.97;5023678;28;20075;-62
2024/01/23 04:13:42;;;;;;;11.73;2.00;;;;;;;6.17;100.00;99548.56;5029712;28;20268;-61
2024/01/23 04:16:08;;;;;;;11.15;1.38;;;;;;;6.11;100.00;99550.06;5028755;28;20036;-62
2024/01/23 04:18:35;;;;;;;10.57;1.42;;;;;;;6.00;100.00;99572.63;5025726;28;20527;-62
2024/01/23 04:21:00;;;;;;;11.25;1.75;;;;;;;6.08;100.00;99574.56;5024655;28;20025;-62
2024/01/23 04:23:26;;;;;;;17.75;1.65;;;;;;;6.27;100.00;99554.69;5032664;28;20492;-62
2024/01/23 04:25:51;;;;;;;14.93;1.30;;;;;;;6.25;100.00;99572.81;5032516;28;20033;-62
2024/01/23 04:28:17;;;;;;;9.20;1.58;;;;;;;6.32;100.00;99585.47;5021432;28;20392;-62
2024/01/23 04:30:45;;;;;;;9.13;1.23;;;;;;;6.28;100.00;99585.94;5008777;28;20022;-62
2024/01/23 04:33:11;;;;;;;10.55;1.10;;;;;;;6.24;100.00;99582.72;5028920;28;20032;-62
2024/01/23 04:35:36;;;;;;;14.65;1.45;;;;;;;6.25;100.00;99591.63;5030749;28;20036;-63
2024/01/23 04:38:02;;;;;;;14.40;1.95;;;;;;;6.17;100.00;99588.88;5025259;28;20024;-62
2024/01/23 04:40:28;;;;;;;15.05;1.20;;;;;;;6.25;100.00;99599.69;5029163;28;20121;-63
2024/01/23 04:42:53;;;;;;;17.33;1.70;;;;;;;6.27;100.00;99603.06;5027527;28;20377;-63
2024/01/23 04:45:18;;;;;;;10.68;1.70;;;;;;;6.38;100.00;99596.59;5026573;28;20083;-63
2024/01/23 04:47:44;;;;;;;14.80;1.70;;;;;;;6.50;100.00;99611.47;5030433;28;20025;-63
2024/01/23 04:50:10;;;;;;;24.40;2.58;;;;;;;6.48;100.00;99610.78;5032715;28;20100;-63
2024/01/23 04:52:36;;;;;;;9.52;1.40;;;;;;;6.51;100.00;99614.00;5031287;28;20060;-62
2024/01/23 04:55:02;;;;;;;13.60;1.33;;;;;;;6.43;100.00;99605.03;5025833;28;20053;-62
2024/01/23 04:57:31;;;;;;;16.20;1.52;;;;;;;6.43;100.00;99595.13;5028509;28;20052;-63
2024/01/23 05:00:01;;;;;;;6.18;1.33;;;;;;;6.46;100.00;99599.34;5025158;28;20434;-63
2024/01/23 05:02:27;;;;;;;18.08;2.38;;;;;;;6.57;100.00;99624.09;5027185;28;20115;-62
2024/01/23 05:04:56;;;;;;;11.82;1.85;;;;;;;6.61;100.00;99630.03;5034233;28;20064;-63
2024/01/23 05:07:21;;;;;;;14.18;1.83;;;;;;;6.64;100.00;99647.69;5031257;28;20414;-62
2024/01/23 05:09:48;;;;;;;13.50;1.70;;;;;;;6.67;100.00;99660.81;5029177;28;20038;-63
2024/01/23 05:12:13;;;;;;;12.75;1.63;;;;;;;6.62;100.00;99653.22;5027542;28;20071;-62
2024/01/23 05:14:40;;;;;;;11.85;1.25;;;;;;;6.68;100.00;99666.06;5023888;28;20033;-61
2024/01/23 05:17:05;;;;;;;15.63;1.80;;;;;;;6.67;100.00;99682.34;5023274;28;20032;-63
2024/01/23 05:19:31;;;;;;;11.73;1.10;;;;;;;6.66;100.00;99664.53;5026574;28;20022;-63
2024/01/23 05:21:59;;;;;;;14.15;1.75;;;;;;;6.58;100.00;99657.25;5028663;28;20033;-63
2024/01/23 05:24:27;;;;;;;16.70;1.73;;;;;;;6.63;100.00;99687.19;5029311;28;20034;-62
2024/01/23 05:26:52;;;;;;;12.05;1.33;;;;;;;6.57;100.00;99690.47;5029179;28;20440;-62
2024/01/23 05:29:18;;;;;;;15.80;1.58;;;;;;;6.56;100.00;99713.00;5026468;28;20108;-63
2024/01/23 05:31:43;;;;;;;8.23;1.50;;;;;;;6.41;100.00;99698.41;5030032;28;20033;-63
2024/01/23 05:34:09;;;;;;;8.00;1.30;;;;;;;6.33;100.00;99696.50;5026466;28;20112;-63
2024/01/23 05:36:34;;;;;;;14.23;1.25;;;;;;;6.39;100.00;99728.13;5028930;28;20120;-62
2024/01/23 05:39:02;;;;;;;13.35;2.10;;;;;;;6.46;100.00;99728.38;5029597;28;20515;-63
2024/01/23 05:41:28;;;;;;;13.07;1.30;;;;;;;6.31;100.00;99726.22;5031718;28;20043;-63
2024/01/23 05:43:55;;;;;;;9.73;2.45;;;;;;;6.24;100.00;99730.53;5026519;28;20025;-62
2024/01/23 05:46:20;;;;;;;11.65;1.67;;;;;;;5.95;100.00;99706.56;5031660;28;20121;-64
2024/01/23 05:48:45;;;;;;;8.27;1.25;;;;;;;5.72;100.00;99700.72;5039944;28;20477;-63
2024/01/23 05:51:11;;;;;;;9.25;1.17;;;;;;;5.92;100.00;99758.69;5034652;28;20024;-64
2024/01/23 05:53:36;;;;;;;8.80;1.52;;;;;;;5.78;100.00;99734.16;5032647;28;20033;-63
2024/01/23 05:56:02;;;;;;;8.70;1.30;;;;;;;5.67;100.00;99724.47;5035305;28;20492;-63
2024/01/23 05:58:28;;;;;;;11.77;2.20;;;;;;;5.83;100.00;99767.63;5032105;28;20072;-62
2024/01/23 06:00:53;;;;;;;10.85;1.30;;;;;;;5.60;100.00;99731.44;5029962;28;20404;-63
2024/01/23 06:03:19;;;;;;;7.07;1.55;;;;;;;5.63;100.00;99753.47;5009669;28;20121;-62
2024/01/23 06:05:46;;;;;;;7.63;1.35;;;;;;;5.22;100.00;99709.16;5028084;28;20037;-63
2024/01/23 06:08:14;;;;;;;8.32;1.35;;;;;;;5.62;100.00;99761.66;5030674;28;20052;-63
2024/01/23 06:10:40;;;;;;;8.57;1.50;;;;;;;5.72;100.00;99784.78;5031392;28;20029;-63
2024/01/23 06:13:05;;;;;;;10.20;1.10;;;;;;;5.61;100.00;99784.97;5027422;28;20099;-64
2024/01/23 06:15:31;;;;;;;15.70;1.95;;;;;;;5.44;100.00;99770.47;5035390;28;20709;-63
2024/01/23 06:17:57;;;;;;;13.10;1.13;;;;;;;5.52;100.00;99795.75;5031801;28;20067;-63
2024/01/23 06:20:22;;;;;;;7.63;1.45;;;;;;;5.35;100.00;99784.78;5033152;28;20029;-63
2024/01/23 06:22:48;;;;;;;13.15;1.77;;;;;;;5.55;100.00;99820.44;5033779;28;20025;-63
2024/01/23 06:25:14;;;;;;;13.43;1.73;;;;;;;5.58;100.00;99816.63;5052881;22;20118;-54
2024/01/23 06:27:40;;;;;;;9.07;1.23;;;;;;;5.51;100.00;99818.22;5068316;28;20027;-54
2024/01/23 06:30:13;;;;;;;9.95;1.95;;;;;;;5.45;100.00;99825.03;5066981;28;20021;-54
2024/01/23 06:32:49;;;;;;;4.75;0.88;;;;;;;5.46;100.00;99832.91;5074960;22;20067;-52
2024/01/23 06:35:14;;;;;;;11.18;1.63;;;;;;;5.47;100.00;99826.53;5060650;28;20480;-51
2024/01/23 06:37:40;;;;;;;9.02;1.20;;;;;;;5.40;100.00;99856.81;5072748;28;20013;-52
2024/01/23 06:40:06;;;;;;;9.73;0.90;;;;;;;5.41;100.00;99867.38;5048138;28;20021;-52
2024/01/23 06:42:32;;;;;;;8.30;1.23;;;;;;;5.37;100.00;99871.38;5063931;28;20047;-52
2024/01/23 06:44:57;;;;;;;9.80;1.15;;;;;;;5.38;100.00;99877.56;5069157;28;20028;-52
2024/01/23 06:47:23;;;;;;;7.72;1.33;;;;;;;5.29;100.00;99868.53;5068283;28;20382;-52
2024/01/23 06:49:49;;;;;;;10.77;2.10;;;;;;;5.24;100.00;99885.06;5075532;28;20020;-52
2024/01/23 06:52:15;;;;;;;10.68;2.25;;;;;;;5.17;100.00;99892.00;5069524;28;20333;-51
2024/01/23 06:54:40;;;;;;;10.43;1.65;;;;;;;5.17;100.00;99899.19;5069893;28;20024;-52
2024/01/23 06:57:06;;;;;;;8.02;2.05;;;;;;;5.02;100.00;99877.31;5066837;28;20475;-52
2024/01/23 06:59:32;;;;;;;12.57;2.08;;;;;;;5.15;100.00;99909.22;5070168;28;20024;-52
2024/01/23 07:01:58;;;;;;;11.70;2.08;;;;;;;5.15;100.00;99901.16;5073427;28;20577;-51
2024/01/23 07:04:23;;;;;;;4.63;1.30;;;;;;;5.22;100.00;99905.00;5065782;28;20032;-52
2024/01/23 07:06:49;;;;;;;7.20;1.40;;;;;;;5.17;100.00;99923.34;5062187;28;20029;-52
2024/01/23 07:09:14;;;;;;;12.90;1.35;;;;;;;5.11;100.00;99915.84;5067221;28;20075;-52
2024/01/23 07:11:41;;;;;;;9.15;1.65;;;;;;;5.12;100.00;99936.34;5074111;28;20440;-52
2024/01/23 07:14:06;;;;;;;6.00;1.38;;;;;;;5.07;100.00;99943.94;5070602;28;20019;-52
2024/01/23 07:16:32;;;;;;;7.55;1.27;;;;;;;5.11;100.00;99964.13;5070283;28;20427;-51
2024/01/23 07:18:58;;;;;;;8.05;1.20;;;;;;;5.19;100.00;99961.63;5073284;28;20067;-52
2024/01/23 07:21:24;;;;;;;7.72;1.60;;;;;;;5.19;100.00;99935.63;5068193;28;20024;-52
2024/01/23 07:23:49;;;;;;;10.13;1.23;;;;;;;5.28;100.00;99968.81;5072142;28;20039;-52
2024/01/23 07:26:15;;;;;;;6.82;1.10;;;;;;;5.23;100.00;99960.34;5069427;28;20035;-52
2024/01/23 07:28:41;;;;;;;10.65;1.85;;;;;;;5.31;100.00;99956.94;5064027;28;20024;-52
2024/01/23 07:31:06;;;;;;;6.72;1.13;;;;;;;5.37;100.00;99965.28;5064817;28;20020;-52
2024/01/23 07:33:32;;;;;;;10.35;0.90;;;;;;;5.40;100.00;99966.84;5067346;28;20059;-52
2024/01/23 07:35:57;;;;;;;2.17;0.85;;;;;;;5.45;100.00;99969.97;5065035;28;20025;-52
2024/01/23 07:38:23;;;;;;;4.20;0.50;;;;;;;5.43;100.00;99959.34;5069483;28;20098;-55
2024/01/23 07:40:48;;;;;;;10.48;0.70;;;;;;;5.60;100.00;99973.03;5069592;28;20028;-55
2024/01/23 07:43:16;;;;;;;8.00;0.80;;;;;;;6.13;100.00;99978.78;5072324;28;20035;-55
2024/01/23 07:45:42;;;;;;;4.03;0.65;;;;;;;6.21;100.00;99972.66;5060758;28;20024;-55
2024/01/23 07:48:07;;;;;;;5.75;1.00;;;;;;;5.92;100.00;99997.75;5066453;28;20384;-55
2024/01/23 07:50:33;;;;;;;13.77;2.08;;;;;;;5.80;100.00;100006.94;5063968;28;20115;-56
2024/01/23 07:52:59;;;;;;;7.93;1.42;;;;;;;5.71;100.00;100005.09;5064351;28;20032;-56
2024/01/23 07:55:24;;;;;;;8.25;2.45;;;;;;;5.90;100.00;99999.72;5064255;28;20032;-55
2024/01/23 07:57:50;;;;;;;8.10;1.48;;;;;;;6.00;100.00;100004.25;5070342;28;20017;-55
2024/01/23 08:00:18;;;;;;;9.88;2.70;;;;;;;6.00;100.00;99982.75;5066501;28;20480;-54
2024/01/23 08:02:44;;;;;;;10.40;1.38;;;;;;;6.20;100.00;100003.22;5068484;28;20502;-55
2024/01/23 08:05:10;;;;;;;11.05;1.55;;;;;;;6.19;100.00;100003.38;5064955;28;20640;-55
2024/01/23 08:07:35;;;;;;;10.65;1.25;;;;;;;6.29;100.00;99999.66;5064939;28;20137;-55
2024/01/23 08:10:01;;;;;;;8.77;1.25;;;;;;;6.54;100.00;100008.03;5064504;28;20029;-54
2024/01/23 08:12:26;;;;;;;6.88;1.25;;;;;;;6.72;100.00;100010.81;5069161;28;20035;-55
2024/01/23 08:14:52;;;;;;;5.05;1.33;;;;;;;7.05;100.00;100021.94;5065905;28;20729;-55
2024/01/23 08:17:18;;;;;;;9.32;1.55;;;;;;;7.13;100.00;100020.22;5063554;28;20048;-55
2024/01/23 08:19:43;;;;;;;4.72;1.00;;;;;;;6.88;100.00;100029.81;5070521;28;20021;-56
2024/01/23 08:22:09;;;;;;;15.90;1.65;;;;;;;7.12;100.00;100028.41;5044616;28;20361;-56
2024/01/23 08:24:35;;;;;;;6.68;1.27;;;;;;;7.07;100.00;100028.03;5067596;28;20025;-55
2024/01/23 08:27:00;;;;;;;10.10;1.20;;;;;;;6.90;100.00;100032.38;5070566;28;20035;-55
2024/01/23 08:29:26;;;;;;;6.60;1.20;;;;;;;6.89;100.00;100020.78;5070936;28;20442;-54
2024/01/23 08:31:51;;;;;;;8.68;1.98;;;;;;;6.64;100.00;100038.44;5068999;28;20028;-54
2024/01/23 08:34:16;;;;;;;9.85;1.38;;;;;;;6.70;100.00;100053.97;5066012;28;20028;-54
2024/01/23 08:36:42;;;;;;;12.75;1.45;;;;;;;6.79;100.00;100041.50;5061542;28;20505;-55
2024/01/23 08:39:08;;;;;;;12.65;1.45;;;;;;;7.44;100.00;100038.69;5069179;28;20114;-55
2024/01/23 08:41:33;;;;;;;11.27;1.38;;;;;;;9.38;100.00;100028.47;5069108;28;20024;-54
2024/01/23 08:43:59;;;;;;;6.13;1.35;;;;;;;9.62;100.00;100037.63;5064801;28;20036;-54
2024/01/23 08:46:24;;;;;;;8.02;1.67;;;;;;;8.60;100.00;100055.66;5067012;28;20039;-54
2024/01/23 08:48:50;;;;;;;9.85;1.40;;;;;;;7.60;100.00;100057.72;5063827;28;20058;-54
2024/01/23 08:51:16;;;;;;;7.38;1.55;;;;;;;8.34;100.00;100058.31;5071798;28;20028;-54
2024/01/23 08:53:41;;;;;;;8.32;1.63;;;;;;;8.67;100.00;100064.81;5069949;28;20074;-54
2024/01/23 08:56:08;;;;;;;8.52;1.33;;;;;;;8.87;100.00;100062.69;5064901;28;20024;-54
2024/01/23 08:58:33;;;;;;;8.90;1.23;;;;;;;9.59;100.00;100052.31;5073608;28;20021;-54
2024/01/23 09:00:59;;;;;;;10.35;1.40;;;;;;;8.99;100.00;100068.69;5065402;28;20480;-54
2024/01/23 09:03:24;;;;;;;9.40;1.70;;;;;;;8.91;100.00;100072.19;5067747;28;20541;-54
2024/01/23 09:05:51;;;;;;;13.63;2.13;;;;;;;8.59;100.00;100070.13;5064899;28;20526;-54
2024/01/23 09:08:16;;;;;;;10.75;1.80;;;;;;;8.41;100.00;100089.09;5070169;28;20507;-55
2024/01/23 09:10:42;;;;;;;9.43;2.03;;;;;;;8.70;100.00;100082.53;5070754;28;20028;-54
2024/01/23 09:13:08;;;;;;;8.75;1.90;;;;;;;8.30;100.00;100094.69;5068238;28;20028;-54
2024/01/23 09:15:33;;;;;;;12.27;1.38;;;;;;;8.12;100.00;100105.50;5063982;28;20090;-54
2024/01/23 09:18:00;;;;;;;10.15;1.40;;;;;;;7.74;100.00;100109.38;5067509;28;20036;-54
2024/01/23 09:20:26;;;;;;;12.13;1.85;;;;;;;7.33;100.00;100101.66;5068956;28;20059;-54
2024/01/23 09:22:52;;;;;;;12.15;1.38;;;;;;;7.22;100.00;100129.63;5070776;28;20039;-54
2024/01/23 09:25:18;;;;;;;16.75;1.95;;;;;;;7.40;100.00;100120.78;5055588;28;20032;-54
2024/01/23 09:27:43;;;;;;;14.88;1.95;;;;;;;7.37;100.00;100132.69;5073623;28;20052;-54
2024/01/23 09:30:11;;;;;;;12.23;1.58;;;;;;;7.47;100.00;100132.66;5074014;28;20024;-54
2024/01/23 09:32:36;;;;;;;11.05;1.40;;;;;;;7.60;100.00;100130.44;5070270;28;20077;-54
2024/01/23 09:35:02;;;;;;;8.50;1.52;;;;;;;7.86;100.00;100143.19;5071592;28;20028;-54
2024/01/23 09:37:28;;;;;;;11.15;1.52;;;;;;;8.05;100.00;100140.31;5072496;28;20028;-55
2024/01/23 09:39:54;;;;;;;11.57;1.52;;;;;;;8.41;100.00;100150.25;5056406;28;20438;-55
2024/01/23 09:42:23;;;;;;;6.90;1.30;;;;;;;8.37;100.00;100155.09;5075024;28;20025;-54
2024/01/23 09:44:51;;;;;;;12.52;1.67;;;;;;;8.50;100.00;100162.81;5074769;28;20028;-55
2024/01/23 09:47:16;;;;;;;10.52;1.70;;;;;;;8.37;100.00;100165.88;5075225;28;20384;-55
2024/01/23 09:49:43;;;;;;;11.45;2.25;;;;;;;8.23;100.00;100159.19;5075063;28;20120;-55
2024/01/23 09:52:11;;;;;;;10.15;1.73;;;;;;;7.93;100.00;100159.56;5070503;28;20028;-55
2024/01/23 09:54:36;;;;;;;13.63;2.25;;;;;;;7.90;100.00;100163.41;5072158;28;20024;-55
2024/01/23 09:57:02;;;;;;;14.38;1.92;;;;;;;7.67;100.00;100163.81;5070030;28;20020;-54
2024/01/23 09:59:27;;;;;;;18.00;2.85;;;;;;;7.65;100.00;100173.94;5072689;28;20020;-54
2024/01/23 10:01:55;;;;;;;12.02;1.65;;;;;;;7.48;100.00;100166.66;5071930;28;20077;-54
2024/01/23 10:04:21;;;;;;;13.10;2.40;;;;;;;7.64;100.00;100166.81;5070899;28;20037;-51
2024/01/23 10:06:47;;;;;;;12.90;2.47;;;;;;;7.68;100.00;100164.69;5074389;28;20483;-51
2024/01/23 10:09:13;;;;;;;13.15;1.88;;;;;;;7.59;100.00;100168.28;5074580;28;20071;-51
2024/01/23 10:11:38;;;;;;;16.83;1.83;;;;;;;7.43;100.00;100166.25;5068561;28;20030;-52
2024/01/23 10:14:06;;;;;;;14.48;2.05;;;;;;;7.37;100.00;100170.38;5070360;28;20047;-51
2024/01/23 10:16:31;;;;;;;6.18;1.20;;;;;;;7.43;100.00;100179.72;5071324;28;20021;-51
2024/01/23 10:18:57;;;;;;;12.82;1.83;;;;;;;7.52;100.00;100173.44;5067334;28;20032;-51
2024/01/23 10:21:34;;;;;;;16.08;2.08;;;;;;;7.98;100.00;100179.66;5118233;22;20011;-55
2024/01/23 10:24:07;;;;;;;7.60;1.55;;;;;;;8.18;100.00;100171.44;5110559;22;20088;-55
2024/01/23 10:26:33;;;;;;;10.07;1.98;;;;;;;8.69;100.00;100183.34;5067492;28;20016;-55
2024/01/23 10:29:04;;;;;;;15.57;1.90;;;;;;;9.27;100.00;100177.28;5054455;28;20035;-54
2024/01/23 10:31:29;;;;;;;22.77;2.35;;;;;;;9.48;100.00;100168.78;5072153;28;20035;-54
2024/01/23 10:34:11;;;;;;;11.52;1.77;;;;;;;9.53;100.00;100171.00;5068098;28;20020;-55
2024/01/23 10:36:36;;;;;;;15.52;2.22;;;;;;;9.80;100.00;100164.50;5057905;28;20048;-54
2024/01/23 10:39:03;;;;;;;15.98;2.38;;;;;;;9.66;100.00;100166.81;5077283;28;20097;-54
2024/01/23 10:41:29;;;;;;;10.75;2.40;;;;;;;8.99;100.00;100164.00;5055003;28;20020;-54
2024/01/23 10:43:56;;;;;;;8.57;1.60;;;;;;;8.95;100.00;100161.75;5074438;28;20379;-54
2024/01/23 10:46:23;;;;;;;9.68;2.00;;;;;;;8.60;100.00;100162.72;5066389;28;20162;-56
2024/01/23 10:51:29;;;;;;;14.18;2.40;;;;;;;10.18;100.00;100125.19;5068513;28;20028;-75
2024/01/23 10:54:08;;;;;;;7.63;1.95;;;;;;;10.40;100.00;100126.41;5075996;28;20254;-73
2024/01/23 10:56:42;;;;;;;10.43;1.60;;;;;;;10.92;100.00;100134.09;5065147;28;20044;-73
2024/01/23 10:59:17;;;;;;;9.65;1.50;;;;;;;11.52;100.00;100105.59;5055465;28;20084;-73
2024/01/23 11:01:44;;;;;;;11.38;2.15;;;;;;;11.69;100.00;100113.66;5047456;28;20103;-73
2024/01/23 11:04:10;;;;;;;10.50;2.10;;;;;;;11.44;100.00;100140.88;5048282;28;20017;-79
2024/01/23 11:06:44;;;;;;;15.15;1.95;;;;;;;11.29;100.00;100123.66;5058033;28;20036;-76
2024/01/23 11:09:15;;;;;;;7.78;1.48;;;;;;;10.05;100.00;100128.38;5055219;28;20051;-86
2024/01/23 11:11:56;;;;;;;9.82;1.50;;;;;;;10.05;100.00;100128.38;5057883;28;20032;-74
2024/01/23 11:14:27;;;;;;;10.85;1.52;;;;;;;9.34;100.00;100116.22;5070290;28;20228;-73
2024/01/23 11:17:05;;;;;;;9.07;1.92;;;;;;;9.78;100.00;100105.22;5062656;28;20024;-78
2024/01/23 11:19:41;;;;;;;9.80;2.08;;;;;;;11.76;100.00;100122.75;5075702;28;20320;-76
2024/01/23 11:22:07;;;;;;;15.98;2.00;;;;;;;13.03;100.00;100123.06;5052724;28;20074;-74
2024/01/23 11:24:44;;;;;;;7.05;1.83;;;;;;;12.02;100.00;100123.28;5056503;28;20024;-74
2024/01/23 11:27:20;;;;;;;8.43;1.27;;;;;;;12.64;100.00;100135.84;5067574;28;20024;-74
2024/01/23 11:29:47;;;;;;;11.63;1.73;;;;;;;14.61;97.78;100114.22;5069989;28;20025;-74